createdAt,value
2023-09-06T00:01:11.700Z,19.97
2023-09-06T00:06:16.834Z,19.47
2023-09-06T00:11:20.538Z,19.46
2023-09-06T00:16:24.032Z,19.39
2023-09-06T00:21:29.484Z,19.57
2023-09-06T00:26:33.005Z,19.38
2023-09-06T00:31:36.774Z,19.57
2023-09-06T00:36:41.817Z,19.52
2023-09-06T00:41:46.154Z,19.40
2023-09-06T00:46:50.405Z,19.32
2023-09-06T00:51:55.376Z,19.07
2023-09-06T00:56:58.992Z,18.96
2023-09-06T01:02:02.808Z,18.98
2023-09-06T01:07:08.884Z,18.71
2023-09-06T01:12:15.334Z,18.95
2023-09-06T01:17:21.586Z,18.80
2023-09-06T01:22:33.668Z,18.32
2023-09-06T01:27:38.964Z,18.11
2023-09-06T01:32:43.035Z,18.47
2023-09-06T01:37:47.152Z,18.49
2023-09-06T01:42:52.215Z,17.97
2023-09-06T01:47:56.330Z,18.02
2023-09-06T01:52:59.879Z,18.24
2023-09-06T01:58:05.773Z,18.15
2023-09-06T02:03:11.387Z,18.03
2023-09-06T02:08:14.972Z,17.70
2023-09-06T02:13:19.879Z,17.91
2023-09-06T02:18:25.293Z,17.74
2023-09-06T02:23:28.742Z,17.63
2023-09-06T02:28:34.524Z,17.79
2023-09-06T02:33:38.021Z,17.73
2023-09-06T02:38:41.533Z,17.67
2023-09-06T02:43:46.388Z,16.00
2023-09-06T02:48:51.272Z,17.55
2023-09-06T02:53:58.209Z,17.49
2023-09-06T02:59:04.171Z,17.48
2023-09-06T03:04:08.247Z,15.76
2023-09-06T03:09:12.345Z,17.34
2023-09-06T03:14:18.814Z,17.11
2023-09-06T03:19:22.340Z,17.22
2023-09-06T03:24:25.814Z,16.81
2023-09-06T03:29:31.893Z,16.89
2023-09-06T03:34:35.978Z,17.06
2023-09-06T03:39:42.609Z,16.98
2023-09-06T03:44:47.671Z,16.44
2023-09-06T03:49:51.177Z,16.30
2023-09-06T03:54:56.260Z,16.62
2023-09-06T04:00:21.103Z,16.32
2023-09-06T04:05:27.016Z,16.10
2023-09-06T04:10:37.663Z,16.39
2023-09-06T04:15:44.441Z,16.58
2023-09-06T04:20:50.332Z,16.52
2023-09-06T04:25:56.588Z,15.86
2023-09-06T04:31:07.904Z,16.46
2023-09-06T04:36:16.111Z,15.71
2023-09-06T04:41:21.474Z,16.14
2023-09-06T04:46:33.718Z,16.35
2023-09-06T04:51:37.662Z,16.31
2023-09-06T04:56:42.101Z,16.14
2023-09-06T05:01:47.504Z,16.02
2023-09-06T05:06:50.973Z,15.84
2023-09-06T05:11:54.722Z,16.21
2023-09-06T05:17:00.601Z,16.22
2023-09-06T05:22:04.752Z,16.17
2023-09-06T05:27:08.542Z,16.15
2023-09-06T05:32:19.995Z,16.18
2023-09-06T05:37:25.911Z,15.83
2023-09-06T05:42:29.837Z,16.15
2023-09-06T05:47:37.359Z,14.89
2023-09-06T05:52:42.413Z,16.16
2023-09-06T05:57:46.152Z,15.02
2023-09-06T06:02:56.596Z,15.91
2023-09-06T06:08:00.323Z,16.30
2023-09-06T06:13:05.042Z,15.29
2023-09-06T06:18:10.102Z,16.22
2023-09-06T06:23:13.760Z,16.28
2023-09-06T06:28:17.353Z,16.43
2023-09-06T06:33:40.384Z,13.54
2023-09-06T06:38:52.065Z,15.36
2023-09-06T06:43:55.784Z,16.72
2023-09-06T06:49:02.641Z,16.36
2023-09-06T06:54:07.885Z,16.82
2023-09-06T06:59:12.255Z,16.92
2023-09-06T07:04:17.193Z,16.95
2023-09-06T07:09:20.721Z,17.41
2023-09-06T07:14:24.283Z,16.59
2023-09-06T07:19:29.303Z,17.67
2023-09-06T07:24:33.070Z,17.54
2023-09-06T07:29:36.983Z,17.90
2023-09-06T07:34:42.024Z,18.06
2023-09-06T07:39:45.916Z,17.98
2023-09-06T07:44:49.520Z,18.21
2023-09-06T07:49:54.803Z,17.94
2023-09-06T07:54:58.668Z,18.22
2023-09-06T08:00:02.202Z,18.06
2023-09-06T08:05:18.201Z,18.58
2023-09-06T08:10:22.823Z,18.95
2023-09-06T08:15:26.917Z,19.19
2023-09-06T08:20:32.539Z,19.37
2023-09-06T08:25:36.221Z,19.51
2023-09-06T08:30:39.869Z,19.30
2023-09-06T08:35:44.869Z,19.64
2023-09-06T08:40:48.470Z,20.01
2023-09-06T08:45:54.026Z,20.20
2023-09-06T08:51:00.720Z,20.37
2023-09-06T08:56:05.942Z,20.28
2023-09-06T09:01:09.652Z,20.68
2023-09-06T09:06:14.746Z,20.88
2023-09-06T09:11:20.082Z,20.84
2023-09-06T09:16:24.786Z,21.06
2023-09-06T09:21:30.917Z,21.30
2023-09-06T09:26:34.749Z,19.80
2023-09-06T09:31:39.677Z,21.94
2023-09-06T09:36:51.971Z,22.26
2023-09-06T09:42:00.138Z,22.46
2023-09-06T09:47:31.202Z,22.35
2023-09-06T09:52:38.506Z,21.74
2023-09-06T09:57:42.797Z,23.10
2023-09-06T10:02:48.798Z,22.41
2023-09-06T10:07:56.031Z,23.16
2023-09-06T10:13:05.657Z,23.97
2023-09-06T10:18:09.400Z,24.13
2023-09-06T10:23:14.875Z,24.56
2023-09-06T10:28:22.155Z,23.47
2023-09-06T10:33:58.225Z,25.19
2023-09-06T10:39:17.578Z,25.44
2023-09-06T10:44:21.615Z,25.01
2023-09-06T10:49:30.181Z,25.44
2023-09-06T10:54:39.766Z,26.18
2023-09-06T10:59:46.314Z,25.23
2023-09-06T11:04:50.175Z,25.90
2023-09-06T11:09:55.190Z,26.40
2023-09-06T11:14:58.759Z,26.41
2023-09-06T11:20:13.467Z,26.87
2023-09-06T11:25:19.677Z,26.67
2023-09-06T11:30:24.751Z,27.19
2023-09-06T11:35:34.834Z,27.20
2023-09-06T11:40:42.780Z,26.35
2023-09-06T11:45:48.200Z,27.31
2023-09-06T11:50:57.664Z,27.64
2023-09-06T11:56:06.488Z,28.01
2023-09-06T12:01:12.469Z,27.79
2023-09-06T12:06:16.222Z,28.03
2023-09-06T12:11:24.987Z,28.53
2023-09-06T12:16:31.500Z,28.45
2023-09-06T12:21:35.525Z,28.79
2023-09-06T12:26:40.651Z,29.19
2023-09-06T12:31:44.317Z,29.31
2023-09-06T12:36:48.007Z,29.50
2023-09-06T12:41:53.240Z,28.86
2023-09-06T12:46:56.833Z,29.88
2023-09-06T12:52:00.275Z,29.89
2023-09-06T12:57:05.861Z,29.90
2023-09-06T13:02:09.479Z,28.52
2023-09-06T13:07:13.043Z,30.27
2023-09-06T13:12:17.881Z,30.04
2023-09-06T13:17:21.625Z,30.28
2023-09-06T13:22:25.124Z,30.37
2023-09-06T13:27:30.282Z,30.30
2023-09-06T13:32:34.121Z,29.67
2023-09-06T13:37:38.067Z,30.52
2023-09-06T13:42:42.977Z,30.82
2023-09-06T13:47:46.662Z,30.79
2023-09-06T13:52:50.364Z,30.77
2023-09-06T13:57:55.247Z,31.31
2023-09-06T14:02:59.081Z,31.35
2023-09-06T14:08:03.003Z,31.58
2023-09-06T14:13:08.659Z,31.72
2023-09-06T14:18:12.231Z,31.95
2023-09-06T14:23:16.288Z,30.79
2023-09-06T14:28:22.216Z,32.17
2023-09-06T14:33:26.377Z,31.73
2023-09-06T14:38:31.661Z,32.31
2023-09-06T14:43:36.901Z,32.52
2023-09-06T14:48:40.538Z,32.44
2023-09-06T14:53:44.145Z,32.62
2023-09-06T14:58:49.113Z,32.55
2023-09-06T15:03:52.763Z,32.59
2023-09-06T15:08:57.728Z,31.66
2023-09-06T15:14:02.878Z,31.86
2023-09-06T15:19:07.017Z,32.80
2023-09-06T15:24:10.841Z,32.85
2023-09-06T15:29:15.734Z,32.90
2023-09-06T15:34:19.283Z,32.89
2023-09-06T15:39:22.811Z,32.54
2023-09-06T15:44:28.061Z,32.99
2023-09-06T15:49:32.346Z,33.00
2023-09-06T15:54:36.068Z,33.01
2023-09-06T15:59:40.890Z,33.06
2023-09-06T16:04:45.918Z,32.88
2023-09-06T16:09:49.421Z,32.91
2023-09-06T16:14:54.759Z,33.09
2023-09-06T16:19:58.291Z,33.09
2023-09-06T16:25:03.337Z,33.14
2023-09-06T16:30:10.308Z,33.25
2023-09-06T16:35:14.134Z,32.97
2023-09-06T16:40:38.526Z,33.20
2023-09-06T16:45:43.568Z,33.08
2023-09-06T16:50:47.537Z,32.98
2023-09-06T16:55:51.389Z,32.85
2023-09-06T17:00:57.007Z,32.54
2023-09-06T17:06:02.106Z,33.18
2023-09-06T17:11:06.638Z,32.95
2023-09-06T17:16:11.772Z,32.80
2023-09-06T17:21:15.434Z,32.55
2023-09-06T17:26:19.035Z,32.29
2023-09-06T17:31:24.161Z,32.15
2023-09-06T17:36:27.735Z,31.92
2023-09-06T17:41:31.341Z,31.68
2023-09-06T17:46:36.841Z,31.51
2023-09-06T17:51:40.955Z,31.25
2023-09-06T17:56:50.899Z,31.05
2023-09-06T18:01:56.206Z,30.86
2023-09-06T18:07:00.617Z,30.63
2023-09-06T18:12:06.905Z,30.15
2023-09-06T18:17:12.754Z,30.26
2023-09-06T18:22:16.438Z,29.94
2023-09-06T18:27:20.648Z,29.67
2023-09-06T18:32:25.564Z,29.09
2023-09-06T18:37:29.133Z,29.41
2023-09-06T18:42:32.657Z,29.25
2023-09-06T18:47:37.756Z,29.07
2023-09-06T18:52:42.173Z,28.59
2023-09-06T18:57:59.695Z,28.70
2023-09-06T19:03:13.911Z,28.55
2023-09-06T19:08:18.065Z,28.36
2023-09-06T19:13:21.969Z,28.19
2023-09-06T19:18:27.148Z,28.06
2023-09-06T19:23:30.696Z,27.60
2023-09-06T19:28:34.394Z,27.70
2023-09-06T19:33:40.494Z,27.34
2023-09-06T19:38:44.303Z,26.96
2023-09-06T19:43:47.907Z,26.21
2023-09-06T19:49:05.768Z,26.71
2023-09-06T19:54:10.192Z,26.25
2023-09-06T19:59:15.792Z,26.61
2023-09-06T20:04:21.233Z,25.75
2023-09-06T20:09:25.804Z,26.22
2023-09-06T20:14:29.695Z,25.89
2023-09-06T20:19:34.515Z,25.78
2023-09-06T20:24:38.048Z,25.52
2023-09-06T20:29:42.535Z,25.02
2023-09-06T20:34:47.581Z,24.17
2023-09-06T20:39:51.160Z,24.77
2023-09-06T20:44:54.713Z,24.82
2023-09-06T20:50:01.416Z,24.85
2023-09-06T20:55:06.177Z,24.45
2023-09-06T21:00:10.553Z,23.98
2023-09-06T21:05:15.627Z,24.33
2023-09-06T21:10:19.256Z,24.23
2023-09-06T21:15:22.791Z,23.68
2023-09-06T21:20:27.687Z,23.59
2023-09-06T21:25:31.631Z,23.70
2023-09-06T21:30:35.428Z,23.67
2023-09-06T21:35:43.955Z,23.26
2023-09-06T21:40:47.623Z,22.95
2023-09-06T21:45:51.595Z,22.99
2023-09-06T21:51:09.516Z,22.89
2023-09-06T21:56:15.077Z,22.23
2023-09-06T22:01:19.469Z,22.64
2023-09-06T22:06:43.234Z,22.01
2023-09-06T22:12:06.272Z,22.26
2023-09-06T22:17:10.155Z,22.62
2023-09-06T22:22:15.264Z,22.21
2023-09-06T22:27:18.807Z,22.34
2023-09-06T22:32:23.243Z,21.22
2023-09-06T22:37:29.352Z,20.97
2023-09-06T22:42:33.329Z,21.15
2023-09-06T22:47:36.901Z,21.64
2023-09-06T22:52:42.192Z,20.97
2023-09-06T22:57:45.718Z,21.66
2023-09-06T23:02:51.629Z,20.99
2023-09-06T23:07:56.770Z,21.55
2023-09-06T23:13:01.404Z,21.03
2023-09-06T23:18:07.177Z,20.07
2023-09-06T23:23:13.156Z,21.28
2023-09-06T23:28:21.959Z,21.17
2023-09-06T23:33:34.541Z,20.74
2023-09-06T23:38:40.734Z,21.07
2023-09-06T23:43:44.318Z,20.95
2023-09-06T23:48:47.808Z,20.88
2023-09-06T23:53:52.718Z,20.35
2023-09-06T23:58:56.158Z,20.71
